createdAt,value
2023-04-09T00:14:36.187Z,99.90
2023-04-09T00:25:50.547Z,99.90
2023-04-09T00:50:39.949Z,99.90
2023-04-09T02:25:13.488Z,99.90
2023-04-09T02:30:16.218Z,99.90
2023-04-09T02:35:20.189Z,99.90
2023-04-09T02:40:22.911Z,99.90
2023-04-09T02:45:25.598Z,99.90
2023-04-09T02:50:29.724Z,99.90
2023-04-09T02:55:32.600Z,99.90
2023-04-09T03:00:35.279Z,99.90
2023-04-09T03:05:39.296Z,99.90
2023-04-09T03:10:41.962Z,99.90
2023-04-09T03:15:44.627Z,99.90
2023-04-09T03:20:48.646Z,99.90
2023-04-09T03:26:00.706Z,99.90
2023-04-09T03:31:03.387Z,99.90
2023-04-09T03:36:07.799Z,99.90
2023-04-09T03:41:10.566Z,99.90
2023-04-09T03:46:13.839Z,99.90
2023-04-09T03:51:18.495Z,99.90
2023-04-09T03:56:21.183Z,99.90
2023-04-09T04:01:26.268Z,99.90
2023-04-09T04:06:31.292Z,99.90
2023-04-09T04:11:34.004Z,99.90
2023-04-09T04:16:36.717Z,99.90
2023-04-09T04:21:40.780Z,99.90
2023-04-09T04:26:43.437Z,99.90
2023-04-09T04:31:46.325Z,99.90
2023-04-09T04:36:50.319Z,99.90
2023-04-09T04:41:52.988Z,99.90
2023-04-09T04:46:55.640Z,99.90
2023-04-09T04:51:59.612Z,99.90
2023-04-09T04:57:02.317Z,99.90
2023-04-09T05:02:05.083Z,99.90
2023-04-09T05:07:09.150Z,99.90
2023-04-09T05:12:12.018Z,99.90
2023-04-09T05:17:15.544Z,99.90
2023-04-09T05:22:19.769Z,99.90
2023-04-09T05:27:24.244Z,99.90
2023-04-09T05:32:27.053Z,99.90
2023-04-09T05:37:31.229Z,99.90
2023-04-09T05:42:33.936Z,99.90
2023-04-09T05:47:36.622Z,99.90
2023-04-09T05:52:40.795Z,99.90
2023-04-09T05:57:45.388Z,99.90
2023-04-09T06:02:48.118Z,99.90
2023-04-09T06:07:52.292Z,44.00
2023-04-09T06:12:55.084Z,1.00
2023-04-09T06:17:59.423Z,1.00
2023-04-09T06:23:03.562Z,1.00
2023-04-09T06:28:06.637Z,1.00
2023-04-09T06:33:09.340Z,1.00
2023-04-09T06:38:13.397Z,1.00
2023-04-09T06:43:16.079Z,1.00
2023-04-09T06:48:18.849Z,1.00
2023-04-09T06:53:22.819Z,1.00
2023-04-09T06:58:25.907Z,1.00
2023-04-09T07:03:28.816Z,1.00
2023-04-09T07:08:33.073Z,1.00
2023-04-09T07:13:35.839Z,1.00
2023-04-09T07:18:38.580Z,1.00
2023-04-09T07:23:42.593Z,1.00
2023-04-09T07:28:48.055Z,99.90
2023-04-09T07:33:51.336Z,99.90
2023-04-09T07:38:55.521Z,1.00
2023-04-09T07:43:58.931Z,1.00
2023-04-09T07:49:01.707Z,1.00
2023-04-09T07:54:06.087Z,1.00
2023-04-09T07:59:08.776Z,1.00
2023-04-09T08:04:13.109Z,99.90
2023-04-09T08:09:17.669Z,99.90
2023-04-09T08:14:20.365Z,99.90
2023-04-09T08:19:23.016Z,99.90
2023-04-09T08:24:27.318Z,99.90
2023-04-09T08:29:43.409Z,99.90
2023-04-09T08:34:52.058Z,81.20
2023-04-09T08:40:35.116Z,1.00
2023-04-09T08:51:15.288Z,1.00
2023-04-09T08:56:42.720Z,99.90
2023-04-09T09:01:57.514Z,99.90
2023-04-09T09:07:19.578Z,99.90
2023-04-09T09:13:03.838Z,99.90
2023-04-09T09:18:16.564Z,99.90
2023-04-09T09:24:18.376Z,99.90
2023-04-09T09:29:36.660Z,99.90
2023-04-09T09:34:58.169Z,99.90
2023-04-09T09:41:02.441Z,99.90
2023-04-09T09:46:48.778Z,99.90
2023-04-09T09:52:57.676Z,99.90
2023-04-09T10:04:27.956Z,99.90
2023-04-09T10:10:17.407Z,99.90
2023-04-09T10:15:42.347Z,99.90
2023-04-09T10:21:14.992Z,99.90
2023-04-09T10:26:51.886Z,99.90
2023-04-09T10:37:38.722Z,99.90
2023-04-09T10:42:51.828Z,99.90
2023-04-09T10:48:00.082Z,99.90
2023-04-09T10:53:12.003Z,99.90
2023-04-09T10:58:19.920Z,99.90
2023-04-09T11:03:29.047Z,99.90
2023-04-09T11:08:53.631Z,99.90
2023-04-09T11:14:12.608Z,99.90
2023-04-09T11:19:26.994Z,99.90
2023-04-09T11:24:58.810Z,99.90
2023-04-09T11:30:13.797Z,99.90
2023-04-09T11:35:36.519Z,99.90
2023-04-09T11:40:53.885Z,99.90
2023-04-09T11:46:06.321Z,99.90
2023-04-09T11:51:12.767Z,99.90
2023-04-09T11:56:38.783Z,99.90
2023-04-09T12:02:14.344Z,99.90
2023-04-09T12:07:55.276Z,99.90
2023-04-09T12:14:17.864Z,99.90
2023-04-09T12:25:33.744Z,99.90
2023-04-09T12:30:42.091Z,99.90
2023-04-09T12:36:07.070Z,99.90
2023-04-09T12:41:12.500Z,99.90
2023-04-09T12:52:11.623Z,99.90
2023-04-09T12:57:36.046Z,99.90
2023-04-09T13:14:20.272Z,99.90
2023-04-09T13:19:49.215Z,99.90
2023-04-09T13:25:27.951Z,99.90
2023-04-09T13:30:55.331Z,99.90
2023-04-09T13:36:10.134Z,99.90
2023-04-09T13:41:15.490Z,99.90
2023-04-09T13:46:19.644Z,99.90
2023-04-09T13:51:22.663Z,99.90
2023-04-09T13:56:25.379Z,99.90
2023-04-09T14:01:29.496Z,99.90
2023-04-09T14:06:32.284Z,99.90
2023-04-09T14:11:35.324Z,99.90
2023-04-09T14:16:39.589Z,99.90
2023-04-09T14:21:42.343Z,99.90
2023-04-09T14:26:45.029Z,99.90
2023-04-09T14:31:49.133Z,99.90
2023-04-09T14:36:51.836Z,99.90
2023-04-09T14:41:54.997Z,99.90
2023-04-09T14:46:59.845Z,99.90
2023-04-09T14:52:02.797Z,99.90
2023-04-09T14:57:05.667Z,99.90
2023-04-09T15:02:09.773Z,99.90
2023-04-09T15:07:12.875Z,99.90
2023-04-09T15:12:15.597Z,99.90
2023-04-09T15:17:19.678Z,99.90
2023-04-09T15:22:22.554Z,99.90
2023-04-09T15:27:25.284Z,99.90
2023-04-09T15:32:29.975Z,99.90
2023-04-09T15:37:32.691Z,99.90
2023-04-09T15:42:35.384Z,99.90
2023-04-09T15:47:39.397Z,99.90
2023-04-09T15:52:42.387Z,99.90
2023-04-09T15:57:46.743Z,99.90
2023-04-09T16:02:50.815Z,99.90
2023-04-09T16:07:54.386Z,99.90
2023-04-09T16:12:57.100Z,99.90
2023-04-09T16:18:01.077Z,99.90
2023-04-09T16:23:03.760Z,99.90
2023-04-09T16:28:06.590Z,99.90
2023-04-09T16:33:10.664Z,99.90
2023-04-09T16:38:14.050Z,99.90
2023-04-09T16:43:16.710Z,99.90
2023-04-09T16:48:20.748Z,99.90
2023-04-09T16:53:23.442Z,99.90
2023-04-09T16:58:26.110Z,99.90
2023-04-09T17:03:30.576Z,99.90
2023-04-09T17:08:33.357Z,99.90
2023-04-09T17:13:36.473Z,99.90
2023-04-09T17:18:40.453Z,99.90
2023-04-09T17:23:44.122Z,99.90
2023-04-09T17:28:47.735Z,99.90
2023-04-09T17:33:51.746Z,99.90
2023-04-09T17:38:56.467Z,1.00
2023-04-09T17:43:59.233Z,1.00
2023-04-09T17:49:03.683Z,1.00
2023-04-09T17:54:06.632Z,1.00
2023-04-09T17:59:09.316Z,1.00
2023-04-09T18:04:13.873Z,99.90
2023-04-09T18:09:16.920Z,99.90
2023-04-09T18:14:19.681Z,99.90
2023-04-09T18:19:23.649Z,99.90
2023-04-09T18:24:26.765Z,99.90
2023-04-09T18:29:29.600Z,99.90
2023-04-09T18:34:33.579Z,86.00
2023-04-09T18:39:36.312Z,99.90
2023-04-09T18:44:38.971Z,99.90
2023-04-09T18:49:42.946Z,1.00
2023-04-09T18:54:45.593Z,1.00
2023-04-09T18:59:48.282Z,1.00
2023-04-09T19:04:52.677Z,1.00
2023-04-09T19:09:55.522Z,1.00
2023-04-09T19:15:00.202Z,1.00
2023-04-09T19:20:04.482Z,1.00
2023-04-09T19:25:08.436Z,99.90
2023-04-09T19:30:11.775Z,99.90
2023-04-09T19:35:15.756Z,99.90
2023-04-09T19:40:21.467Z,99.90
2023-04-09T19:45:24.163Z,99.90
2023-04-09T19:50:28.406Z,1.00
2023-04-09T19:55:31.320Z,1.00
2023-04-09T20:00:34.763Z,1.00
2023-04-09T20:05:38.793Z,1.00
2023-04-09T20:10:42.753Z,1.40
2023-04-09T20:15:45.446Z,99.90
2023-04-09T20:20:50.628Z,1.00
2023-04-09T20:25:54.635Z,99.90
2023-04-09T20:30:57.628Z,99.90
2023-04-09T20:36:01.796Z,99.90
2023-04-09T20:41:04.634Z,1.00
2023-04-09T20:46:07.430Z,77.40
2023-04-09T20:51:12.488Z,99.90
2023-04-09T20:56:15.142Z,1.00
2023-04-09T21:01:18.177Z,1.00
2023-04-09T21:06:22.286Z,99.90
2023-04-09T21:11:24.979Z,1.00
2023-04-09T21:16:29.703Z,1.00
2023-04-09T21:21:33.903Z,1.00
2023-04-09T21:26:49.981Z,1.00
2023-04-09T21:31:54.848Z,1.00
2023-04-09T21:36:59.063Z,1.00
2023-04-09T21:42:02.756Z,1.00
2023-04-09T21:47:07.569Z,99.90
2023-04-09T21:52:14.924Z,99.90
2023-04-09T21:57:18.421Z,99.90
2023-04-09T22:02:21.243Z,99.90
2023-04-09T22:07:25.755Z,1.00
2023-04-09T22:12:28.400Z,1.00
2023-04-09T22:17:31.271Z,1.00
2023-04-09T22:22:35.517Z,1.00
2023-04-09T22:27:38.316Z,1.00
2023-04-09T22:32:41.032Z,1.00
2023-04-09T22:37:45.690Z,1.00
2023-04-09T22:42:48.567Z,1.00
2023-04-09T22:47:51.382Z,1.00
2023-04-09T22:52:55.578Z,1.00
2023-04-09T22:57:59.538Z,1.00
2023-04-09T23:03:02.308Z,3.50
2023-04-09T23:08:06.659Z,39.30
2023-04-09T23:13:10.200Z,99.90
2023-04-09T23:18:12.903Z,99.90
2023-04-09T23:23:16.845Z,99.90
2023-04-09T23:28:19.491Z,99.90
2023-04-09T23:33:22.149Z,99.90
2023-04-09T23:38:26.225Z,99.90
2023-04-09T23:43:28.847Z,99.90
2023-04-09T23:48:31.527Z,99.90
2023-04-09T23:53:35.611Z,99.90
2023-04-09T23:58:38.247Z,99.90
